Bosporus — V2QY — position and weather

sailwx.info

Track history (hours):
 
Tides and Currents Weather Stations Pressure Air Temp Water Temp Dewpoint Dewpoint Depression Visibility Wind Speed Wind Dir Waves Ship Positions

Bosporus

Last reported at 2015-Aug-31 08:33 UTC. Time now 2015-Aug-31 08:53 UTC.
Position N 43°25' E 004°57'.

Length 100 m; draft 4.1 m.

Type: Cargo ship. MMSI: 304010802.

Date/timePositionNaut miles runAvg speedWind from/ knotsBaromVisibWave heightAir tempDewpointWater temp
2015-Aug-31 08:33N 43°25' E 004°57'0 0.0
2015-Aug-31 07:33N 43°25' E 004°57'0 0.0
2015-Aug-31 06:33N 43°25' E 004°57'0 0.0
2015-Aug-31 05:33N 43°25' E 004°57'0 0.0
2015-Aug-31 04:33N 43°25' E 004°57'0 0.0
2015-Aug-31 03:33N 43°25' E 004°57'0 0.0
2015-Aug-31 02:33N 43°25' E 004°57'0 0.0
2015-Aug-31 01:33N 43°25' E 004°57'0 0.0
2015-Aug-31 00:33N 43°25' E 004°57'0 0.0
2015-Aug-30 23:33N 43°25' E 004°57'0 0.0
2015-Aug-30 22:33N 43°25' E 004°57'0 0.0
2015-Aug-30 21:33N 43°25' E 004°57'0 0.0
2015-Aug-30 20:33N 43°25' E 004°57'0 0.0
2015-Aug-30 19:33N 43°25' E 004°57'0 0.0
2015-Aug-30 18:33N 43°25' E 004°57'0 0.0
2015-Aug-30 17:33N 43°25' E 004°57'0 0.0
2015-Aug-30 16:33N 43°25' E 004°57'0 0.0
2015-Aug-30 15:33N 43°25' E 004°57'0 0.0
2015-Aug-30 14:33N 43°25' E 004°57'0 0.0
2015-Aug-30 13:33N 43°25' E 004°57'0 0.0
2015-Aug-30 12:33N 43°25' E 004°57'0 0.0
2015-Aug-30 11:33N 43°25' E 004°57'0 0.0
2015-Aug-30 10:33N 43°25' E 004°57'0 0.0
2015-Aug-30 09:33N 43°25' E 004°57'0 0.0
2015-Aug-30 08:33N 43°25' E 004°57'0 0.0
2015-Aug-30 07:33N 43°25' E 004°57'0 0.0
2015-Aug-30 06:33N 43°25' E 004°57'0 0.0
2015-Aug-30 05:33N 43°25' E 004°57'0 0.0
2015-Aug-30 04:33N 43°25' E 004°57'0 0.0
2015-Aug-30 03:33N 43°25' E 004°57'0 0.0
2015-Aug-30 02:33N 43°25' E 004°57'0 0.0
2015-Aug-30 01:33N 43°25' E 004°57'0 0.0
2015-Aug-30 00:30N 43°25' E 004°57'0 0.0
2015-Aug-29 23:33N 43°25' E 004°57'0 0.0
2015-Aug-29 22:33N 43°25' E 004°57'0 0.0
2015-Aug-29 21:33N 43°25' E 004°57'0 0.1
2015-Aug-29 20:33N 43°25' E 004°57'0 0.0
2015-Aug-29 19:33N 43°25' E 004°57'0 0.0
2015-Aug-29 18:33N 43°25' E 004°57'0 0.0
2015-Aug-29 17:33N 43°25' E 004°57'0 0.0
2015-Aug-29 16:33N 43°25' E 004°57'0 0.0
2015-Aug-29 15:33N 43°25' E 004°57'0 0.0
2015-Aug-29 14:33N 43°25' E 004°57'0 0.0
2015-Aug-29 13:33N 43°25' E 004°57'0 0.0
2015-Aug-29 12:33N 43°25' E 004°57'0 0.0
2015-Aug-29 11:33N 43°25' E 004°57'0 0.0
2015-Aug-29 10:33N 43°25' E 004°57'0 0.0
2015-Aug-29 09:30N 43°25' E 004°57'0 0.0
2015-Aug-29 08:33N 43°25' E 004°57'0 0.0
2015-Aug-29 07:33N 43°25' E 004°57'0 0.0
2015-Aug-29 06:33N 43°25' E 004°57'0 0.1
2015-Aug-29 05:33N 43°25' E 004°57'0 0.1
2015-Aug-29 04:30N 43°24' E 004°56'0 0.1
2015-Aug-29 03:33N 43°25' E 004°57'0 0.0
2015-Aug-29 02:30N 43°25' E 004°57'0 0.0
2015-Aug-29 01:33N 43°25' E 004°57'0 0.0
2015-Aug-29 00:30N 43°25' E 004°57'0 0.0
2015-Aug-28 23:33N 43°25' E 004°57'0 0.0
2015-Aug-28 22:33N 43°25' E 004°57'0 0.0
2015-Aug-28 21:33N 43°25' E 004°57'0 0.0
2015-Aug-28 20:33N 43°25' E 004°57'0 0.0
2015-Aug-28 19:33N 43°25' E 004°57'0 0.0
2015-Aug-28 18:33N 43°25' E 004°57'0 0.0
2015-Aug-28 17:33N 43°25' E 004°57'0 0.0
2015-Aug-28 16:30N 43°25' E 004°57'0 0.0
2015-Aug-28 15:33N 43°25' E 004°57'0 0.0
2015-Aug-28 14:33N 43°25' E 004°57'0 0.0
2015-Aug-28 13:33N 43°25' E 004°57'0 0.0
2015-Aug-28 12:33N 43°25' E 004°57'0 0.0
2015-Aug-28 11:33N 43°25' E 004°57'0 0.0
2015-Aug-28 10:33N 43°25' E 004°57'0 0.0
2015-Aug-28 09:33N 43°25' E 004°57'0 0.4
2015-Aug-28 08:34N 43°24' E 004°57'1010.4
2015-Aug-28 07:33N 43°14' E 005°02'9211.4
2015-Aug-27 23:33N 42°59' E 007°05'  
2015-Aug-25 09:32N 42°54' E 006°60'90 9.0
2015-Aug-24 23:33N 43°14' E 004°60'9 9.4
2015-Aug-24 22:33N 43°23' E 004°57'4 3.7
2015-Aug-24 21:30N 43°26' E 004°54'0 0.0
2015-Aug-24 20:30N 43°26' E 004°54'0 0.0
2015-Aug-24 19:33N 43°26' E 004°54'0 0.0
2015-Aug-24 18:33N 43°26' E 004°54'0 0.0
2015-Aug-24 17:30N 43°26' E 004°54'0 0.0
2015-Aug-24 16:32N 43°26' E 004°54'0 0.0
2015-Aug-24 15:32N 43°26' E 004°54'0 0.0
2015-Aug-24 14:29N 43°26' E 004°54'0 0.0
2015-Aug-24 13:20N 43°26' E 004°54'0 0.0
2015-Aug-24 12:32N 43°26' E 004°54'0 0.0
2015-Aug-24 11:32N 43°26' E 004°54'0 0.0
2015-Aug-24 10:29N 43°26' E 004°54'0 0.0
2015-Aug-24 09:32N 43°26' E 004°54'0 0.0
2015-Aug-24 08:32N 43°26' E 004°54'0 0.0
2015-Aug-24 07:32N 43°26' E 004°54'0 0.0
2015-Aug-24 06:32N 43°26' E 004°54'0 0.0
2015-Aug-24 05:32N 43°26' E 004°54'0 0.0
2015-Aug-24 04:23N 43°26' E 004°54'0 0.0
2015-Aug-24 03:29N 43°26' E 004°54'0 0.0
2015-Aug-24 02:32N 43°26' E 004°54'0 0.0
2015-Aug-24 01:23N 43°26' E 004°54'0 0.0
2015-Aug-24 00:32N 43°26' E 004°54'0 0.0
2015-Aug-23 23:32N 43°26' E 004°54'0 0.0
2015-Aug-23 22:26N 43°26' E 004°54'0 0.0
2015-Aug-23 21:29N 43°26' E 004°54'0 0.0
2015-Aug-23 18:32N 43°26' E 004°54'0 0.0
2015-Aug-23 17:32N 43°26' E 004°54'0 0.1
2015-Aug-23 16:33N 43°26' E 004°54'8 7.8
2015-Aug-23 15:33N 43°19' E 004°60'187 9.7
2015-Aug-22 20:15N 40°54' E 002°20'810.6
2015-Aug-22 19:30N 40°50' E 002°11'1211.2
2015-Aug-22 18:26N 40°43' E 001°58'1011.5
2015-Aug-22 17:33N 40°38' E 001°46'  
Track history (hours):
 
Tides and Currents Weather Stations Pressure Air Temp Water Temp Dewpoint Dewpoint Depression Visibility Wind Speed Wind Dir Waves Ship Positions

Bosporus

Last reported at 2015-Aug-31 08:33 UTC. Time now 2015-Aug-31 08:53 UTC.
Position N 43°25' E 004°57'.

Length 100 m; draft 4.1 m.

Type: Cargo ship. MMSI: 304010802.

Date/timePositionNaut miles runAvg speedWind from/ knotsBaromVisibWave heightAir tempDewpointWater temp
2015-Aug-31 08:33N 43°25' E 004°57'0 0.0
2015-Aug-31 07:33N 43°25' E 004°57'0 0.0
2015-Aug-31 06:33N 43°25' E 004°57'0 0.0
2015-Aug-31 05:33N 43°25' E 004°57'0 0.0
2015-Aug-31 04:33N 43°25' E 004°57'0 0.0
2015-Aug-31 03:33N 43°25' E 004°57'0 0.0
2015-Aug-31 02:33N 43°25' E 004°57'0 0.0
2015-Aug-31 01:33N 43°25' E 004°57'0 0.0
2015-Aug-31 00:33N 43°25' E 004°57'0 0.0
2015-Aug-30 23:33N 43°25' E 004°57'0 0.0
2015-Aug-30 22:33N 43°25' E 004°57'0 0.0
2015-Aug-30 21:33N 43°25' E 004°57'0 0.0
2015-Aug-30 20:33N 43°25' E 004°57'0 0.0
2015-Aug-30 19:33N 43°25' E 004°57'0 0.0
2015-Aug-30 18:33N 43°25' E 004°57'0 0.0
2015-Aug-30 17:33N 43°25' E 004°57'0 0.0
2015-Aug-30 16:33N 43°25' E 004°57'0 0.0
2015-Aug-30 15:33N 43°25' E 004°57'0 0.0
2015-Aug-30 14:33N 43°25' E 004°57'0 0.0
2015-Aug-30 13:33N 43°25' E 004°57'0 0.0
2015-Aug-30 12:33N 43°25' E 004°57'0 0.0
2015-Aug-30 11:33N 43°25' E 004°57'0 0.0
2015-Aug-30 10:33N 43°25' E 004°57'0 0.0
2015-Aug-30 09:33N 43°25' E 004°57'0 0.0
2015-Aug-30 08:33N 43°25' E 004°57'0 0.0
2015-Aug-30 07:33N 43°25' E 004°57'0 0.0
2015-Aug-30 06:33N 43°25' E 004°57'0 0.0
2015-Aug-30 05:33N 43°25' E 004°57'0 0.0
2015-Aug-30 04:33N 43°25' E 004°57'0 0.0
2015-Aug-30 03:33N 43°25' E 004°57'0 0.0
2015-Aug-30 02:33N 43°25' E 004°57'0 0.0
2015-Aug-30 01:33N 43°25' E 004°57'0 0.0
2015-Aug-30 00:30N 43°25' E 004°57'0 0.0
2015-Aug-29 23:33N 43°25' E 004°57'0 0.0
2015-Aug-29 22:33N 43°25' E 004°57'0 0.0
2015-Aug-29 21:33N 43°25' E 004°57'0 0.1
2015-Aug-29 20:33N 43°25' E 004°57'0 0.0
2015-Aug-29 19:33N 43°25' E 004°57'0 0.0
2015-Aug-29 18:33N 43°25' E 004°57'0 0.0
2015-Aug-29 17:33N 43°25' E 004°57'0 0.0
2015-Aug-29 16:33N 43°25' E 004°57'0 0.0
2015-Aug-29 15:33N 43°25' E 004°57'0 0.0
2015-Aug-29 14:33N 43°25' E 004°57'0 0.0
2015-Aug-29 13:33N 43°25' E 004°57'0 0.0
2015-Aug-29 12:33N 43°25' E 004°57'0 0.0
2015-Aug-29 11:33N 43°25' E 004°57'0 0.0
2015-Aug-29 10:33N 43°25' E 004°57'0 0.0
2015-Aug-29 09:30N 43°25' E 004°57'0 0.0
2015-Aug-29 08:33N 43°25' E 004°57'0 0.0
2015-Aug-29 07:33N 43°25' E 004°57'0 0.0
2015-Aug-29 06:33N 43°25' E 004°57'0 0.1
2015-Aug-29 05:33N 43°25' E 004°57'0 0.1
2015-Aug-29 04:30N 43°24' E 004°56'0 0.1
2015-Aug-29 03:33N 43°25' E 004°57'0 0.0
2015-Aug-29 02:30N 43°25' E 004°57'0 0.0
2015-Aug-29 01:33N 43°25' E 004°57'0 0.0
2015-Aug-29 00:30N 43°25' E 004°57'0 0.0
2015-Aug-28 23:33N 43°25' E 004°57'0 0.0
2015-Aug-28 22:33N 43°25' E 004°57'0 0.0
2015-Aug-28 21:33N 43°25' E 004°57'0 0.0
2015-Aug-28 20:33N 43°25' E 004°57'0 0.0
2015-Aug-28 19:33N 43°25' E 004°57'0 0.0
2015-Aug-28 18:33N 43°25' E 004°57'0 0.0
2015-Aug-28 17:33N 43°25' E 004°57'0 0.0
2015-Aug-28 16:30N 43°25' E 004°57'0 0.0
2015-Aug-28 15:33N 43°25' E 004°57'0 0.0
2015-Aug-28 14:33N 43°25' E 004°57'0 0.0
2015-Aug-28 13:33N 43°25' E 004°57'0 0.0
2015-Aug-28 12:33N 43°25' E 004°57'0 0.0
2015-Aug-28 11:33N 43°25' E 004°57'0 0.0
2015-Aug-28 10:33N 43°25' E 004°57'0 0.0
2015-Aug-28 09:33N 43°25' E 004°57'0 0.4
2015-Aug-28 08:34N 43°24' E 004°57'1010.4
2015-Aug-28 07:33N 43°14' E 005°02'9211.4
2015-Aug-27 23:33N 42°59' E 007°05'  
2015-Aug-25 09:32N 42°54' E 006°60'90 9.0
2015-Aug-24 23:33N 43°14' E 004°60'9 9.4
2015-Aug-24 22:33N 43°23' E 004°57'4 3.7
2015-Aug-24 21:30N 43°26' E 004°54'0 0.0
2015-Aug-24 20:30N 43°26' E 004°54'0 0.0
2015-Aug-24 19:33N 43°26' E 004°54'0 0.0
2015-Aug-24 18:33N 43°26' E 004°54'0 0.0
2015-Aug-24 17:30N 43°26' E 004°54'0 0.0
2015-Aug-24 16:32N 43°26' E 004°54'0 0.0
2015-Aug-24 15:32N 43°26' E 004°54'0 0.0
2015-Aug-24 14:29N 43°26' E 004°54'0 0.0
2015-Aug-24 13:20N 43°26' E 004°54'0 0.0
2015-Aug-24 12:32N 43°26' E 004°54'0 0.0
2015-Aug-24 11:32N 43°26' E 004°54'0 0.0
2015-Aug-24 10:29N 43°26' E 004°54'0 0.0
2015-Aug-24 09:32N 43°26' E 004°54'0 0.0
2015-Aug-24 08:32N 43°26' E 004°54'0 0.0
2015-Aug-24 07:32N 43°26' E 004°54'0 0.0
2015-Aug-24 06:32N 43°26' E 004°54'0 0.0
2015-Aug-24 05:32N 43°26' E 004°54'0 0.0
2015-Aug-24 04:23N 43°26' E 004°54'0 0.0
2015-Aug-24 03:29N 43°26' E 004°54'0 0.0
2015-Aug-24 02:32N 43°26' E 004°54'0 0.0
2015-Aug-24 01:23N 43°26' E 004°54'0 0.0
2015-Aug-24 00:32N 43°26' E 004°54'0 0.0
2015-Aug-23 23:32N 43°26' E 004°54'0 0.0
2015-Aug-23 22:26N 43°26' E 004°54'0 0.0
2015-Aug-23 21:29N 43°26' E 004°54'0 0.0
2015-Aug-23 18:32N 43°26' E 004°54'0 0.0
2015-Aug-23 17:32N 43°26' E 004°54'0 0.1
2015-Aug-23 16:33N 43°26' E 004°54'8 7.8
2015-Aug-23 15:33N 43°19' E 004°60'187 9.7
2015-Aug-22 20:15N 40°54' E 002°20'810.6
2015-Aug-22 19:30N 40°50' E 002°11'1211.2
2015-Aug-22 18:26N 40°43' E 001°58'1011.5
2015-Aug-22 17:33N 40°38' E 001°46'  

Dump ship's entire track history